Time;durP1;ratioP1;P1;durP2;ratioP2;P2;SDS_P1;SDS_P2;PMS_P1;PMS_P2;Temp;Humidity;BMP_temperature;BMP_pressure;BME280_temperature;BME280_humidity;BME280_pressure;Samples;Min_cycle;Max_cycle;Signal;HPM_P1;HPM_P2
2022/02/26 00:01:41;;;;;;;1.83;0.83;;;;;;;3.47;77.46;99502.81;5033652;28;20040;-58
2022/02/26 00:04:06;;;;;;;4.53;1.10;;;;;;;3.52;77.41;99507.97;5033714;28;20036;-58
2022/02/26 00:06:32;;;;;;;1.43;0.83;;;;;;;3.46;77.73;99526.44;5034349;28;20069;-57
2022/02/26 00:08:57;;;;;;;2.57;0.90;;;;;;;3.45;77.92;99504.44;5033106;28;20474;-58
2022/02/26 00:11:23;;;;;;;2.27;1.00;;;;;;;3.44;77.99;99512.00;5038908;28;20142;-58
2022/02/26 00:13:48;;;;;;;2.67;1.53;;;;;;;3.43;77.62;99517.91;5042126;28;20498;-56
2022/02/26 00:16:14;;;;;;;1.40;1.30;;;;;;;3.39;78.69;99508.50;5040746;28;20052;-57
2022/02/26 00:18:40;;;;;;;2.17;1.23;;;;;;;3.32;79.14;99510.03;5039048;28;20033;-57
2022/02/26 00:21:05;;;;;;;1.60;0.80;;;;;;;3.32;80.53;99522.69;5039912;28;20515;-57
2022/02/26 00:23:30;;;;;;;3.80;1.17;;;;;;;3.30;81.17;99521.81;5039923;28;20041;-57
2022/02/26 00:25:56;;;;;;;2.47;1.00;;;;;;;3.27;81.78;99533.56;5041115;28;20033;-57
2022/02/26 00:28:22;;;;;;;2.20;0.90;;;;;;;3.30;82.56;99518.44;5039854;28;20041;-57
2022/02/26 00:30:47;;;;;;;2.03;1.17;;;;;;;3.32;83.56;99521.84;5040664;28;20103;-55
2022/02/26 00:33:13;;;;;;;4.50;1.30;;;;;;;3.28;84.83;99520.91;5039201;28;20049;-58
2022/02/26 00:35:40;;;;;;;3.20;1.37;;;;;;;3.21;86.31;99508.94;5040090;28;20029;-58
2022/02/26 00:38:05;;;;;;;1.83;1.10;;;;;;;3.18;86.76;99529.13;5041218;28;20192;-57
2022/02/26 00:40:31;;;;;;;4.63;1.30;;;;;;;3.16;87.56;99526.56;5039869;28;20118;-58
2022/02/26 00:42:57;;;;;;;2.80;0.90;;;;;;;3.19;88.13;99521.56;5040667;28;20126;-59
2022/02/26 00:45:22;;;;;;;6.77;1.33;;;;;;;3.16;88.84;99536.69;5039640;28;20041;-57
2022/02/26 00:47:49;;;;;;;2.43;1.10;;;;;;;3.16;88.81;99530.75;5039918;28;20097;-57
2022/02/26 00:50:15;;;;;;;4.30;1.27;;;;;;;3.11;89.58;99530.63;5037320;28;20033;-58
2022/02/26 00:52:41;;;;;;;2.73;1.30;;;;;;;3.15;90.03;99537.50;5038579;28;20038;-58
2022/02/26 00:55:07;;;;;;;3.30;2.33;;;;;;;3.16;90.79;99541.75;5039989;28;20403;-57
2022/02/26 00:57:33;;;;;;;3.50;1.23;;;;;;;3.10;91.75;99544.13;5038834;28;20037;-59
2022/02/26 00:59:58;;;;;;;4.57;1.73;;;;;;;3.12;92.74;99546.69;5038465;28;20033;-58
2022/02/26 01:02:24;;;;;;;3.67;1.43;;;;;;;3.01;94.01;99546.41;5040236;28;20036;-55
2022/02/26 01:04:50;;;;;;;2.90;1.90;;;;;;;3.00;94.62;99541.31;5040964;28;20045;-58
2022/02/26 01:07:16;;;;;;;1.83;1.57;;;;;;;2.97;94.91;99547.16;5040420;28;20080;-58
2022/02/26 01:09:41;;;;;;;3.33;2.00;;;;;;;2.97;95.38;99557.28;5038346;28;20075;-58
2022/02/26 01:12:08;;;;;;;3.17;1.70;;;;;;;2.96;96.02;99545.47;5037041;28;20049;-57
2022/02/26 01:14:35;;;;;;;1.83;1.20;;;;;;;2.97;95.80;99556.47;5037235;28;20434;-58
2022/02/26 01:17:03;;;;;;;3.30;1.70;;;;;;;3.01;95.60;99553.19;5038266;28;20149;-57
2022/02/26 01:19:29;;;;;;;9.20;2.60;;;;;;;3.01;95.93;99553.19;5036146;28;20041;-57
2022/02/26 01:21:54;;;;;;;7.33;1.70;;;;;;;2.93;96.75;99562.25;5036224;28;20049;-57
2022/02/26 01:24:20;;;;;;;6.60;1.93;;;;;;;2.91;97.80;99557.16;5037078;28;20037;-57
2022/02/26 01:26:46;;;;;;;8.20;2.53;;;;;;;2.92;98.08;99565.59;5035182;28;20053;-58
2022/02/26 01:29:12;;;;;;;5.10;1.57;;;;;;;2.85;99.02;99569.63;5034821;28;20045;-57
2022/02/26 01:31:38;;;;;;;6.67;2.27;;;;;;;2.87;99.52;99568.00;5038238;28;20475;-59
2022/02/26 01:34:05;;;;;;;3.60;2.20;;;;;;;2.84;99.95;99562.00;5036230;28;20095;-56
2022/02/26 01:36:30;;;;;;;3.60;1.87;;;;;;;2.89;99.38;99568.91;5036885;28;20037;-55
2022/02/26 01:38:56;;;;;;;7.73;4.17;;;;;;;2.88;99.88;99551.16;5037868;28;20033;-54
2022/02/26 01:41:23;;;;;;;3.47;2.10;;;;;;;2.83;99.94;99565.34;5036779;28;20033;-57
2022/02/26 01:43:48;;;;;;;4.03;1.90;;;;;;;2.86;100.00;99558.69;5037129;28;20052;-58
2022/02/26 01:46:14;;;;;;;4.43;1.53;;;;;;;2.87;100.00;99562.94;5035586;28;20046;-57
2022/02/26 01:48:40;;;;;;;2.20;1.90;;;;;;;2.85;100.00;99551.91;5036769;28;20425;-57
2022/02/26 01:51:08;;;;;;;5.63;2.67;;;;;;;2.82;100.00;99545.91;5034952;28;20172;-58
2022/02/26 01:53:35;;;;;;;3.93;1.97;;;;;;;2.88;100.00;99554.53;5036260;28;20363;-54
2022/02/26 01:56:03;;;;;;;6.57;2.30;;;;;;;2.84;100.00;99552.75;5035054;28;20037;-58
2022/02/26 01:58:29;;;;;;;7.67;2.30;;;;;;;2.89;100.00;99556.22;5034235;28;20894;-58
2022/02/26 02:00:54;;;;;;;3.70;2.47;;;;;;;2.88;100.00;99554.53;5034396;28;20061;-56
2022/02/26 02:03:20;;;;;;;2.77;1.77;;;;;;;2.85;100.00;99551.03;5034813;28;20045;-58
2022/02/26 02:05:46;;;;;;;3.23;2.20;;;;;;;2.94;100.00;99546.22;5035860;28;20096;-58
2022/02/26 02:08:11;;;;;;;4.40;2.60;;;;;;;2.96;100.00;99560.66;5034828;28;20041;-55
2022/02/26 02:10:40;;;;;;;5.93;2.67;;;;;;;3.00;100.00;99557.38;5035046;28;20048;-57
2022/02/26 02:13:05;;;;;;;3.47;2.50;;;;;;;2.98;100.00;99553.09;5034460;28;20046;-57
2022/02/26 02:15:34;;;;;;;8.73;2.47;;;;;;;2.96;100.00;99563.19;5035590;28;20132;-56
2022/02/26 02:18:00;;;;;;;3.53;2.57;;;;;;;2.85;100.00;99548.50;5036236;28;20048;-57
2022/02/26 02:20:26;;;;;;;2.70;2.50;;;;;;;2.97;100.00;99576.72;5034945;28;20049;-58
2022/02/26 02:22:51;;;;;;;5.47;2.43;;;;;;;2.92;100.00;99573.19;5035050;28;20033;-57
2022/02/26 02:25:18;;;;;;;4.83;2.17;;;;;;;2.91;100.00;99579.94;5036499;28;20040;-59
2022/02/26 02:27:44;;;;;;;120.60;75.37;;;;;;;2.90;100.00;99583.28;5037055;28;20029;-57
2022/02/26 02:30:10;;;;;;;241.03;109.57;;;;;;;2.95;100.00;99563.13;5035894;28;20033;-57
2022/02/26 02:32:35;;;;;;;209.00;78.20;;;;;;;2.92;100.00;99580.78;5036538;28;20090;-57
2022/02/26 02:35:02;;;;;;;6.57;3.00;;;;;;;2.89;100.00;99562.97;5034536;28;20139;-56
2022/02/26 02:37:27;;;;;;;4.27;2.50;;;;;;;2.79;100.00;99573.69;5034565;28;20042;-53
2022/02/26 02:39:52;;;;;;;5.03;2.20;;;;;;;2.77;100.00;99578.69;5035371;28;20052;-55
2022/02/26 02:42:18;;;;;;;5.43;3.03;;;;;;;2.79;100.00;99568.63;5035820;28;20087;-57
2022/02/26 02:44:44;;;;;;;5.47;2.60;;;;;;;2.74;100.00;99568.50;5035446;28;20037;-57
2022/02/26 02:47:09;;;;;;;4.27;2.40;;;;;;;2.74;100.00;99573.56;5035344;28;20103;-58
2022/02/26 02:49:35;;;;;;;4.30;2.67;;;;;;;2.69;100.00;99578.50;5033908;28;20037;-57
2022/02/26 02:52:01;;;;;;;7.13;2.80;;;;;;;2.64;100.00;99574.13;5031989;28;20033;-57
2022/02/26 02:54:27;;;;;;;3.77;2.53;;;;;;;2.64;100.00;99574.13;5033508;28;20042;-57
2022/02/26 02:56:52;;;;;;;3.10;2.40;;;;;;;2.64;100.00;99580.03;5032930;28;20506;-58
2022/02/26 02:59:17;;;;;;;5.33;2.30;;;;;;;2.60;100.00;99577.38;5033700;28;20041;-56
2022/02/26 03:01:43;;;;;;;5.17;3.10;;;;;;;2.61;100.00;99574.03;5033378;28;20037;-57
2022/02/26 03:04:08;;;;;;;7.83;2.90;;;;;;;2.57;100.00;99568.03;5031182;28;20053;-58
2022/02/26 03:06:34;;;;;;;5.27;2.77;;;;;;;2.59;100.00;99571.44;5035419;28;20156;-57
2022/02/26 03:09:00;;;;;;;5.97;3.37;;;;;;;2.58;100.00;99562.16;5035059;28;19916;-58
2022/02/26 03:11:26;;;;;;;7.57;2.77;;;;;;;2.62;100.00;99571.56;5034786;28;20057;-56
2022/02/26 03:13:51;;;;;;;4.10;3.07;;;;;;;2.58;100.00;99566.38;5032868;28;20095;-57
2022/02/26 03:16:17;;;;;;;5.30;2.40;;;;;;;2.53;100.00;99571.31;5032074;28;20045;-57
2022/02/26 03:18:42;;;;;;;7.73;3.83;;;;;;;2.58;100.00;99569.75;5033521;28;20091;-58
2022/02/26 03:21:08;;;;;;;5.73;2.90;;;;;;;2.62;100.00;99579.16;5034989;28;20045;-58
2022/02/26 03:23:33;;;;;;;6.20;2.80;;;;;;;2.63;100.00;99573.25;5035198;28;20037;-57
2022/02/26 03:25:58;;;;;;;7.13;2.57;;;;;;;2.59;100.00;99571.44;5034376;28;20046;-58
2022/02/26 03:28:24;;;;;;;4.30;2.87;;;;;;;2.69;100.00;99586.09;5033734;28;20722;-57
2022/02/26 03:30:49;;;;;;;3.17;2.30;;;;;;;2.67;100.00;99589.41;5032886;28;20073;-58
2022/02/26 03:33:16;;;;;;;6.43;3.03;;;;;;;2.68;100.00;99588.56;5033325;28;20033;-57
2022/02/26 03:35:42;;;;;;;8.13;2.47;;;;;;;2.66;100.00;99592.75;5033067;28;20037;-58
2022/02/26 03:38:08;;;;;;;89.20;47.80;;;;;;;2.71;100.00;99596.28;5035330;28;20048;-57
2022/02/26 03:40:34;;;;;;;364.27;116.10;;;;;;;2.67;100.00;99597.84;5036406;28;20052;-58
2022/02/26 03:43:01;;;;;;;418.00;124.00;;;;;;;2.67;100.00;99586.88;5032864;28;20060;-57
2022/02/26 03:45:26;;;;;;;7.60;3.50;;;;;;;2.69;100.00;99598.75;5034463;28;20056;-57
2022/02/26 03:47:52;;;;;;;289.13;107.37;;;;;;;2.68;100.00;99603.75;5035302;28;20061;-58
2022/02/26 03:50:17;;;;;;;365.87;122.20;;;;;;;2.66;100.00;99600.34;5033815;28;20096;-58
2022/02/26 03:52:43;;;;;;;212.27;99.60;;;;;;;2.64;100.00;99602.81;5032831;28;20096;-59
2022/02/26 03:55:09;;;;;;;231.00;103.60;;;;;;;2.71;100.00;99604.72;5031939;28;20052;-57
2022/02/26 03:57:35;;;;;;;6.37;2.97;;;;;;;2.70;100.00;99603.00;5032095;28;20056;-58
2022/02/26 04:00:01;;;;;;;6.17;2.80;;;;;;;2.63;100.00;99601.09;5032745;28;20475;-58
2022/02/26 04:02:28;;;;;;;4.60;3.50;;;;;;;2.63;100.00;99606.16;5034287;28;20049;-58
2022/02/26 04:04:53;;;;;;;8.67;7.27;;;;;;;2.64;100.00;99602.81;5033131;28;20041;-56
2022/02/26 04:07:20;;;;;;;332.57;115.83;;;;;;;2.66;100.00;99608.78;5033308;28;20178;-58
2022/02/26 04:09:46;;;;;;;389.80;125.97;;;;;;;2.63;100.00;99603.63;5031661;28;20041;-58
2022/02/26 04:12:11;;;;;;;317.73;113.97;;;;;;;2.59;100.00;99595.94;5033661;28;20111;-58
2022/02/26 04:14:37;;;;;;;424.83;127.93;;;;;;;2.63;100.00;99601.09;5033983;28;20169;-59
2022/02/26 04:17:03;;;;;;;307.67;117.67;;;;;;;2.64;100.00;99618.00;5032521;28;20049;-57
2022/02/26 04:19:28;;;;;;;131.87;85.43;;;;;;;2.64;100.00;99607.03;5031489;28;20048;-58
2022/02/26 04:21:53;;;;;;;178.43;94.70;;;;;;;2.68;100.00;99622.34;5032279;28;20391;-58
2022/02/26 04:24:19;;;;;;;74.70;58.73;;;;;;;2.61;100.00;99612.00;5033012;28;20124;-59
2022/02/26 04:26:44;;;;;;;7.73;4.57;;;;;;;2.58;100.00;99614.47;5033329;28;20056;-58
2022/02/26 04:29:11;;;;;;;348.67;112.93;;;;;;;2.55;100.00;99615.22;5033644;28;20114;-58
2022/02/26 04:31:37;;;;;;;4.80;3.23;;;;;;;2.48;100.00;99617.53;5033497;28;20718;-57
2022/02/26 04:34:03;;;;;;;4.67;3.17;;;;;;;2.42;100.00;99615.66;5034525;28;20037;-58
2022/02/26 04:36:28;;;;;;;127.97;80.13;;;;;;;2.49;100.00;99625.19;5036710;28;20040;-58
2022/02/26 04:38:54;;;;;;;377.27;122.87;;;;;;;2.48;100.00;99625.13;5034761;28;20380;-59
2022/02/26 04:41:19;;;;;;;235.50;84.17;;;;;;;2.40;100.00;99629.97;5034468;28;20441;-58
2022/02/26 04:43:45;;;;;;;6.00;3.47;;;;;;;2.41;100.00;99626.63;5035006;28;20873;-59
2022/02/26 04:46:10;;;;;;;133.40;75.97;;;;;;;2.38;100.00;99620.63;5033312;28;20057;-59
2022/02/26 04:48:36;;;;;;;440.97;135.93;;;;;;;2.40;100.00;99637.56;5034691;28;20119;-59
2022/02/26 04:51:03;;;;;;;400.10;134.50;;;;;;;2.45;100.00;99625.03;5032745;28;20080;-59
2022/02/26 04:53:28;;;;;;;32.67;18.37;;;;;;;2.44;100.00;99635.97;5034113;28;20041;-57
2022/02/26 04:55:53;;;;;;;88.63;79.03;;;;;;;2.37;100.00;99641.69;5031801;28;20147;-57
2022/02/26 04:58:19;;;;;;;73.80;65.97;;;;;;;2.37;100.00;99647.59;5033505;28;20056;-58
2022/02/26 05:00:45;;;;;;;204.73;100.07;;;;;;;2.44;100.00;99641.91;5036892;28;20042;-58
2022/02/26 05:03:10;;;;;;;60.27;55.03;;;;;;;2.45;100.00;99641.09;5039972;28;20083;-55
2022/02/26 05:05:36;;;;;;;299.77;122.60;;;;;;;2.50;100.00;99658.94;5036157;28;20041;-57
2022/02/26 05:08:01;;;;;;;282.20;118.90;;;;;;;2.50;100.00;99651.34;5037232;28;20055;-57
2022/02/26 05:10:27;;;;;;;279.73;123.67;;;;;;;2.40;100.00;99644.28;5038467;28;20049;-56
2022/02/26 05:12:53;;;;;;;266.83;116.20;;;;;;;2.50;100.00;99646.28;5037480;28;20521;-54
2022/02/26 05:15:19;;;;;;;166.60;106.60;;;;;;;2.46;100.00;99655.44;5037755;28;20135;-58
2022/02/26 05:17:45;;;;;;;211.30;108.40;;;;;;;2.53;100.00;99652.28;5037945;28;20037;-58
2022/02/26 05:20:11;;;;;;;239.70;115.13;;;;;;;2.52;100.00;99664.88;5037784;28;20041;-58
2022/02/26 05:22:37;;;;;;;197.23;111.17;;;;;;;2.53;100.00;99653.97;5035893;28;20141;-57
2022/02/26 05:25:04;;;;;;;185.13;105.33;;;;;;;2.53;100.00;99659.03;5037533;28;20475;-58
2022/02/26 05:27:29;;;;;;;170.60;103.17;;;;;;;2.51;100.00;99660.63;5035822;28;20620;-57
2022/02/26 05:29:55;;;;;;;180.77;103.87;;;;;;;2.53;100.00;99664.09;5038242;28;20044;-59
2022/02/26 05:32:20;;;;;;;207.43;113.70;;;;;;;2.56;100.00;99676.81;5038186;28;20491;-56
2022/02/26 05:34:46;;;;;;;230.90;115.40;;;;;;;2.59;100.00;99674.41;5037223;28;20041;-58
2022/02/26 05:37:11;;;;;;;238.77;113.77;;;;;;;2.53;100.00;99679.28;5036005;28;20052;-58
2022/02/26 05:39:37;;;;;;;270.30;121.77;;;;;;;2.56;100.00;99687.81;5034413;28;20604;-55
2022/02/26 05:42:02;;;;;;;357.47;124.30;;;;;;;2.49;100.00;99693.50;5035505;28;20041;-56
2022/02/26 05:44:28;;;;;;;368.13;128.17;;;;;;;2.50;100.00;99696.91;5037337;28;20131;-56
2022/02/26 05:46:53;;;;;;;374.27;126.80;;;;;;;2.52;100.00;99696.13;5038035;28;20039;-58
2022/02/26 05:49:19;;;;;;;324.90;119.90;;;;;;;2.52;100.00;99692.72;5036113;28;20037;-57
2022/02/26 05:51:45;;;;;;;279.57;116.80;;;;;;;2.53;100.00;99725.69;5036554;28;20037;-57
2022/02/26 05:54:10;;;;;;;310.53;117.10;;;;;;;2.59;100.00;99705.59;5034043;28;20048;-57
2022/02/26 05:56:36;;;;;;;260.40;114.13;;;;;;;2.58;100.00;99696.31;5032130;28;20033;-55
2022/02/26 05:59:01;;;;;;;263.03;112.77;;;;;;;2.57;100.00;99704.72;5037026;28;20404;-56
2022/02/26 06:01:27;;;;;;;272.30;114.13;;;;;;;2.59;100.00;99710.66;5037320;28;20127;-57
2022/02/26 06:03:52;;;;;;;283.37;118.37;;;;;;;2.51;100.00;99702.00;5036536;28;20144;-57
2022/02/26 06:06:17;;;;;;;279.33;118.23;;;;;;;2.51;100.00;99711.25;5035195;28;20774;-56
2022/02/26 06:08:43;;;;;;;310.17;121.67;;;;;;;2.54;100.00;99716.44;5038001;28;20076;-57
2022/02/26 06:11:08;;;;;;;280.90;116.07;;;;;;;2.50;100.00;99712.09;5037796;28;20072;-56
2022/02/26 06:13:34;;;;;;;255.63;114.10;;;;;;;2.60;100.00;99726.72;5036942;28;20053;-58
2022/02/26 06:15:59;;;;;;;278.57;117.77;;;;;;;2.63;100.00;99725.13;5037516;28;20049;-58
2022/02/26 06:18:24;;;;;;;239.00;112.67;;;;;;;2.71;100.00;99736.38;5037170;28;20267;-56
2022/02/26 06:20:50;;;;;;;227.33;112.93;;;;;;;2.79;100.00;99740.78;5038111;28;20525;-57
2022/02/26 06:23:15;;;;;;;245.10;118.33;;;;;;;2.82;100.00;99736.69;5037590;28;20570;-57
2022/02/26 06:25:41;;;;;;;208.47;112.13;;;;;;;2.94;100.00;99742.09;5035228;28;20128;-57
2022/02/26 06:28:06;;;;;;;168.73;110.20;;;;;;;3.08;100.00;99745.03;5034741;28;20036;-57
2022/02/26 06:30:32;;;;;;;190.50;107.77;;;;;;;3.05;100.00;99750.00;5034781;28;20084;-57
2022/02/26 06:32:57;;;;;;;389.27;133.83;;;;;;;3.10;100.00;99750.97;5036437;28;20034;-56
2022/02/26 06:35:23;;;;;;;278.47;122.60;;;;;;;3.13;100.00;99754.47;5035972;28;20045;-57
2022/02/26 06:37:49;;;;;;;230.37;117.63;;;;;;;3.12;100.00;99759.50;5032662;28;20436;-53
2022/02/26 06:40:14;;;;;;;146.30;107.70;;;;;;;3.12;100.00;99762.03;5036345;28;20139;-54
2022/02/26 06:42:39;;;;;;;177.83;114.30;;;;;;;3.15;100.00;99772.25;5035483;28;20733;-54
2022/02/26 06:45:05;;;;;;;128.13;105.40;;;;;;;3.25;100.00;99775.91;5031233;28;20649;-57
2022/02/26 06:47:31;;;;;;;149.93;110.43;;;;;;;3.25;100.00;99781.84;5034162;28;20029;-56
2022/02/26 06:49:57;;;;;;;145.10;112.60;;;;;;;3.36;100.00;99792.25;5034575;28;20463;-56
2022/02/26 06:52:22;;;;;;;128.03;106.83;;;;;;;3.48;100.00;99780.78;5038468;28;20101;-55
2022/02/26 06:54:48;;;;;;;131.30;109.13;;;;;;;3.55;100.00;99786.91;5036324;28;20044;-53
2022/02/26 06:57:13;;;;;;;140.87;115.60;;;;;;;3.70;100.00;99802.53;5038859;28;20743;-57
2022/02/26 06:59:38;;;;;;;160.00;123.70;;;;;;;3.81;100.00;99796.06;5039609;28;20153;-56
2022/02/26 07:02:04;;;;;;;176.37;124.37;;;;;;;3.87;100.00;99788.59;5041196;28;20052;-58
2022/02/26 07:04:29;;;;;;;207.20;127.73;;;;;;;3.91;100.00;99789.53;5035407;28;20127;-57
2022/02/26 07:06:55;;;;;;;158.00;123.47;;;;;;;4.02;100.00;99798.31;5032529;28;20045;-57
2022/02/26 07:09:21;;;;;;;164.27;124.70;;;;;;;4.05;100.00;99794.16;5033557;28;20045;-57
2022/02/26 07:11:48;;;;;;;150.03;124.07;;;;;;;3.87;100.00;99773.38;5032609;28;20067;-57
2022/02/26 07:14:14;;;;;;;162.43;123.90;;;;;;;4.00;100.00;99774.56;5033689;28;20410;-57
2022/02/26 07:16:40;;;;;;;107.30;96.70;;;;;;;3.88;100.00;99785.25;5035573;28;20045;-57
2022/02/26 07:19:06;;;;;;;120.37;108.43;;;;;;;3.90;100.00;99782.78;5033507;28;20033;-57
2022/02/26 07:21:32;;;;;;;113.20;102.20;;;;;;;3.91;100.00;99800.56;5030549;28;20036;-57
2022/02/26 07:23:58;;;;;;;186.93;128.93;;;;;;;3.88;100.00;99799.63;5032769;28;20041;-57
2022/02/26 07:26:28;;;;;;;164.87;132.97;;;;;;;3.91;100.00;99807.31;5032513;28;20475;-56
2022/02/26 07:28:54;;;;;;;136.33;113.43;;;;;;;3.85;100.00;99817.31;5033150;28;20037;-57
2022/02/26 07:31:20;;;;;;;207.20;120.90;;;;;;;3.83;100.00;99808.78;5035352;28;20095;-57
2022/02/26 07:33:46;;;;;;;189.57;119.67;;;;;;;3.98;100.00;99829.50;5033368;28;20041;-57
2022/02/26 07:36:12;;;;;;;202.20;126.63;;;;;;;4.10;100.00;99833.22;5034262;28;20422;-58
2022/02/26 07:38:38;;;;;;;191.40;128.07;;;;;;;4.18;100.00;99833.41;5034577;28;20540;-57
2022/02/26 07:41:06;;;;;;;294.93;140.57;;;;;;;4.25;100.00;99847.09;5032114;28;20519;-56
2022/02/26 07:43:32;;;;;;;196.67;131.07;;;;;;;4.24;100.00;99841.19;5032082;28;20046;-56
2022/02/26 07:45:58;;;;;;;210.40;138.63;;;;;;;4.02;100.00;99844.84;5032069;28;20566;-57
2022/02/26 07:48:24;;;;;;;161.40;129.73;;;;;;;4.13;100.00;99852.72;5032080;28;20041;-57
2022/02/26 07:50:49;;;;;;;142.90;120.13;;;;;;;4.17;100.00;99848.56;5034954;28;20426;-56
2022/02/26 07:53:15;;;;;;;164.47;120.57;;;;;;;4.26;100.00;99849.69;5033460;28;20037;-57
2022/02/26 07:55:40;;;;;;;166.93;134.77;;;;;;;4.40;100.00;99843.28;5033400;28;20052;-56
2022/02/26 07:58:06;;;;;;;171.40;131.00;;;;;;;4.49;100.00;99842.66;5034223;28;20049;-56
2022/02/26 08:00:32;;;;;;;145.00;126.93;;;;;;;4.70;100.00;99847.38;5033609;28;20034;-57
2022/02/26 08:03:00;;;;;;;150.73;131.80;;;;;;;4.81;100.00;99843.41;5032015;28;20103;-57
2022/02/26 08:05:25;;;;;;;144.13;128.73;;;;;;;4.66;100.00;99843.06;5034640;28;20049;-57
2022/02/26 08:07:51;;;;;;;140.13;124.23;;;;;;;4.57;100.00;99861.47;5034796;28;20029;-54
2022/02/26 08:10:17;;;;;;;116.70;106.60;;;;;;;4.66;100.00;99859.16;5032303;28;20048;-57
2022/02/26 08:12:43;;;;;;;92.80;85.43;;;;;;;4.73;100.00;99868.63;5032196;28;20084;-55
2022/02/26 08:15:10;;;;;;;58.93;54.93;;;;;;;4.83;100.00;99851.94;5033136;28;20443;-58
2022/02/26 08:17:35;;;;;;;71.03;66.23;;;;;;;4.96;99.99;99856.47;5030396;28;20037;-58
2022/02/26 08:20:03;;;;;;;83.30;77.30;;;;;;;4.97;98.29;99863.25;5034370;28;20107;-57
2022/02/26 08:22:28;;;;;;;21.47;20.33;;;;;;;5.11;96.89;99839.03;5032386;28;20487;-57
2022/02/26 08:24:54;;;;;;;18.37;16.77;;;;;;;5.15;92.78;99850.97;5031672;28;20052;-57
2022/02/26 08:27:20;;;;;;;17.30;16.30;;;;;;;5.34;93.41;99840.41;5030531;28;20037;-57
2022/02/26 08:29:46;;;;;;;9.43;8.80;;;;;;;5.70;92.90;99847.91;5047377;28;20045;-59
2022/02/26 08:32:12;;;;;;;16.33;15.40;;;;;;;5.77;90.51;99841.25;5036102;28;20095;-60
2022/02/26 08:34:37;;;;;;;7.67;7.03;;;;;;;5.64;90.51;99839.31;5036400;28;20053;-60
2022/02/26 08:37:03;;;;;;;7.87;7.27;;;;;;;5.57;90.77;99845.94;5034675;28;20049;-60
2022/02/26 08:39:30;;;;;;;6.07;5.33;;;;;;;5.52;91.93;99850.06;5036157;28;20120;-59
2022/02/26 08:41:56;;;;;;;7.77;4.90;;;;;;;5.39;92.10;99861.66;5033996;28;20052;-60
2022/02/26 08:44:21;;;;;;;5.10;4.70;;;;;;;5.17;92.98;99848.47;5037350;28;20518;-60
2022/02/26 08:46:47;;;;;;;12.33;11.60;;;;;;;5.09;95.46;99868.66;5034576;28;20146;-61
2022/02/26 08:49:12;;;;;;;9.50;9.00;;;;;;;4.83;95.93;99868.03;5035137;28;20044;-60
2022/02/26 08:51:38;;;;;;;21.87;20.33;;;;;;;4.79;97.34;99868.78;5035318;28;20600;-60
2022/02/26 08:54:04;;;;;;;32.00;30.10;;;;;;;4.86;96.86;99875.72;5035695;28;20064;-59
2022/02/26 08:56:30;;;;;;;35.37;33.23;;;;;;;5.00;96.49;99866.75;5032745;28;20045;-58
2022/02/26 08:58:57;;;;;;;23.80;22.43;;;;;;;5.23;93.00;99877.41;5033523;28;20041;-60
2022/02/26 09:01:23;;;;;;;18.90;17.77;;;;;;;5.38;92.29;99871.81;5038661;28;20037;-58
2022/02/26 09:03:49;;;;;;;17.13;15.97;;;;;;;5.51;90.11;99876.34;5036164;28;20038;-59
2022/02/26 09:06:14;;;;;;;12.20;11.37;;;;;;;5.39;90.59;99864.22;5034663;28;20047;-60
2022/02/26 09:08:40;;;;;;;10.20;9.53;;;;;;;5.62;90.11;99882.50;5035510;28;20411;-58
2022/02/26 09:11:06;;;;;;;8.57;8.03;;;;;;;5.09;90.59;99878.81;5036789;28;20053;-59
2022/02/26 09:13:36;;;;;;;8.00;7.47;;;;;;;5.26;92.45;99882.56;5034806;28;20793;-58
2022/02/26 09:16:02;;;;;;;10.97;9.93;;;;;;;5.16;93.09;99879.78;5035372;28;20164;-59
2022/02/26 09:18:28;;;;;;;8.43;7.63;;;;;;;5.09;96.61;99877.94;5033973;28;20103;-58
2022/02/26 09:20:53;;;;;;;13.60;12.57;;;;;;;5.10;97.86;99882.19;5034778;28;20057;-58
2022/02/26 09:23:18;;;;;;;14.93;14.10;;;;;;;5.03;97.29;99881.19;5033813;28;20442;-59
2022/02/26 09:25:44;;;;;;;11.97;11.23;;;;;;;5.00;97.20;99893.84;5034052;28;20068;-60
2022/02/26 09:28:10;;;;;;;11.77;11.13;;;;;;;5.07;96.54;99893.16;5035301;28;20149;-58
2022/02/26 09:30:35;;;;;;;13.90;13.03;;;;;;;4.98;97.48;99895.47;5034302;28;20144;-59
2022/02/26 09:33:01;;;;;;;15.13;14.33;;;;;;;4.74;98.84;99888.13;5032888;28;20042;-59
2022/02/26 09:35:27;;;;;;;16.53;15.40;;;;;;;4.92;98.79;99900.44;5035372;28;20111;-60
2022/02/26 09:37:52;;;;;;;53.90;50.40;;;;;;;4.73;100.00;99900.78;5035141;28;20053;-60
2022/02/26 09:40:19;;;;;;;105.90;98.17;;;;;;;4.63;100.00;99897.16;5035621;28;20048;-57
2022/02/26 09:42:45;;;;;;;120.00;110.33;;;;;;;4.65;100.00;99909.91;5033045;28;20040;-58
2022/02/26 09:45:11;;;;;;;191.00;152.70;;;;;;;4.66;100.00;99911.63;5034418;28;20566;-57
2022/02/26 09:47:36;;;;;;;228.23;154.67;;;;;;;4.48;100.00;99917.97;5035737;28;20139;-58
2022/02/26 09:50:06;;;;;;;248.27;154.60;;;;;;;4.31;100.00;99910.72;5034888;28;20361;-60
2022/02/26 09:52:38;;;;;;;204.63;149.53;;;;;;;4.25;100.00;99908.00;5035268;28;20076;-60
2022/02/26 09:55:04;;;;;;;188.37;143.43;;;;;;;4.46;100.00;99906.88;5034752;28;20037;-59
2022/02/26 09:57:30;;;;;;;155.87;137.00;;;;;;;4.53;100.00;99910.47;5034183;28;20437;-60
2022/02/26 09:59:55;;;;;;;154.97;138.47;;;;;;;4.43;100.00;99909.34;5037022;28;20049;-60
2022/02/26 10:02:34;;;;;;;168.73;145.27;;;;;;;4.57;100.00;99915.66;5036094;28;20483;-61
2022/02/26 10:05:00;;;;;;;164.73;132.27;;;;;;;4.59;100.00;99920.75;5034699;28;20041;-59
2022/02/26 10:07:27;;;;;;;153.97;137.60;;;;;;;4.71;100.00;99921.06;5034507;28;20049;-59
2022/02/26 10:09:54;;;;;;;153.13;135.40;;;;;;;4.77;100.00;99923.78;5033469;28;20668;-57
2022/02/26 10:12:20;;;;;;;148.67;133.57;;;;;;;4.71;100.00;99922.78;5034357;28;20034;-59
2022/02/26 10:14:47;;;;;;;139.70;125.83;;;;;;;4.56;100.00;99926.63;5036061;28;20061;-58
2022/02/26 10:17:23;;;;;;;148.77;134.00;;;;;;;4.44;100.00;99922.91;5033985;28;20048;-59
2022/02/26 10:19:49;;;;;;;139.03;125.97;;;;;;;4.66;100.00;99930.28;5034251;28;20044;-59
2022/02/26 10:22:14;;;;;;;125.27;113.87;;;;;;;4.72;100.00;99906.69;5034466;28;20052;-58
2022/02/26 10:24:40;;;;;;;114.50;104.80;;;;;;;4.99;100.00;99926.00;5030032;28;20042;-59
2022/02/26 10:27:11;;;;;;;106.60;98.37;;;;;;;4.75;100.00;99917.81;5036875;28;20507;-57
2022/02/26 10:29:39;;;;;;;92.90;85.80;;;;;;;4.99;100.00;99918.41;5036076;28;20040;-59
2022/02/26 10:32:07;;;;;;;56.97;53.47;;;;;;;5.17;100.00;99920.50;5036189;28;20067;-60
2022/02/26 10:34:38;;;;;;;88.30;81.97;;;;;;;4.98;99.57;99926.84;5034962;28;20128;-55
2022/02/26 10:37:06;;;;;;;14.37;13.30;;;;;;;5.09;100.00;99918.63;5037148;28;20570;-62
2022/02/26 10:39:41;;;;;;;6.67;6.10;;;;;;;5.25;99.74;99920.69;5036194;28;20045;-62
2022/02/26 10:42:10;;;;;;;7.97;6.82;;;;;;;5.38;96.79;99917.59;5037944;28;20039;-60
2022/02/26 10:44:36;;;;;;;4.10;3.70;;;;;;;5.64;97.28;99908.00;5039081;28;20048;-60
2022/02/26 10:47:08;;;;;;;4.53;2.97;;;;;;;5.68;97.27;99918.25;5033081;28;20041;-58
2022/02/26 10:49:34;;;;;;;5.40;3.73;;;;;;;5.85;95.90;99916.06;5032378;28;20116;-56
2022/02/26 10:52:09;;;;;;;2.83;1.90;;;;;;;6.09;90.96;99911.50;5033587;28;20039;-60
2022/02/26 10:54:36;;;;;;;4.20;2.07;;;;;;;6.28;82.63;99908.44;5032770;28;20152;-59
2022/02/26 10:57:07;;;;;;;4.87;3.13;;;;;;;6.30;81.42;99921.22;5035445;28;20041;-57
2022/02/26 10:59:34;;;;;;;2.93;2.70;;;;;;;6.37;78.96;99905.22;5033477;28;20919;-56
2022/02/26 11:02:05;;;;;;;5.53;4.97;;;;;;;6.22;79.74;99898.16;5029413;28;20059;-57
2022/02/26 11:04:32;;;;;;;6.40;3.10;;;;;;;5.95;81.11;99918.84;5028278;28;20212;-56
2022/02/26 11:06:59;;;;;;;3.93;2.50;;;;;;;5.82;79.51;99900.72;5026888;28;20522;-58
2022/02/26 11:09:25;;;;;;;3.23;2.90;;;;;;;5.91;79.07;99909.44;5029075;28;20033;-58
2022/02/26 11:11:51;;;;;;;3.07;2.77;;;;;;;6.04;79.65;99900.34;5028871;28;20582;-57
2022/02/26 11:14:20;;;;;;;11.93;4.40;;;;;;;6.21;76.60;99901.53;5029527;28;20376;-58